sensor_id;sensor_type;location;lat;lon;timestamp;pressure;altitude;pressure_sealevel;temperature;humidity
31911;BME280;18457;52.432;16.914;2022-11-04T00:00:03;99792.29;;;10.24;78.37
31911;BME280;18457;52.432;16.914;2022-11-04T00:02:55;99789.86;;;10.20;78.55
31911;BME280;18457;52.432;16.914;2022-11-04T00:05:28;99783.83;;;10.23;78.34
31911;BME280;18457;52.432;16.914;2022-11-04T00:07:59;99785.10;;;10.23;78.52
31911;BME280;18457;52.432;16.914;2022-11-04T00:10:49;99779.27;;;10.19;78.67
31911;BME280;18457;52.432;16.914;2022-11-04T00:13:42;99780.77;;;10.17;78.97
31911;BME280;18457;52.432;16.914;2022-11-04T00:16:14;99781.58;;;10.15;78.93
31911;BME280;18457;52.432;16.914;2022-11-04T00:19:04;99780.27;;;10.16;78.95
31911;BME280;18457;52.432;16.914;2022-11-04T00:21:36;99779.60;;;10.15;79.01
31911;BME280;18457;52.432;16.914;2022-11-04T00:24:25;99774.19;;;10.15;79.22
31911;BME280;18457;52.432;16.914;2022-11-04T00:27:15;99772.17;;;10.16;79.33
31911;BME280;18457;52.432;16.914;2022-11-04T00:30:08;99767.89;;;10.07;79.65
31911;BME280;18457;52.432;16.914;2022-11-04T00:32:40;99769.80;;;9.99;80.02
31911;BME280;18457;52.432;16.914;2022-11-04T00:35:30;99763.84;;;10.04;80.10
31911;BME280;18457;52.432;16.914;2022-11-04T00:38:02;99761.77;;;10.01;80.01
31911;BME280;18457;52.432;16.914;2022-11-04T00:40:33;99758.42;;;10.04;80.07
31911;BME280;18457;52.432;16.914;2022-11-04T00:43:06;99756.88;;;10.08;79.97
31911;BME280;18457;52.432;16.914;2022-11-04T00:45:38;99748.80;;;10.01;80.25
31911;BME280;18457;52.432;16.914;2022-11-04T00:48:10;99746.95;;;10.08;79.90
31911;BME280;18457;52.432;16.914;2022-11-04T00:50:42;99743.38;;;10.07;80.13
31911;BME280;18457;52.432;16.914;2022-11-04T00:53:13;99745.86;;;10.08;80.00
31911;BME280;18457;52.432;16.914;2022-11-04T00:55:45;99739.50;;;10.10;80.00
31911;BME280;18457;52.432;16.914;2022-11-04T00:58:17;99738.98;;;10.15;79.76
31911;BME280;18457;52.432;16.914;2022-11-04T01:00:49;99742.78;;;10.20;79.47
31911;BME280;18457;52.432;16.914;2022-11-04T01:03:20;99740.58;;;10.21;79.23
31911;BME280;18457;52.432;16.914;2022-11-04T01:05:52;99734.23;;;10.16;79.64
31911;BME280;18457;52.432;16.914;2022-11-04T01:08:24;99724.52;;;10.15;79.81
31911;BME280;18457;52.432;16.914;2022-11-04T01:10:56;99722.18;;;10.09;80.11
31911;BME280;18457;52.432;16.914;2022-11-04T01:13:31;99713.94;;;10.08;80.18
31911;BME280;18457;52.432;16.914;2022-11-04T01:16:06;99707.08;;;10.08;80.25
31911;BME280;18457;52.432;16.914;2022-11-04T01:18:39;99704.36;;;10.08;80.27
31911;BME280;18457;52.432;16.914;2022-11-04T01:21:13;99698.58;;;10.14;79.97
31911;BME280;18457;52.432;16.914;2022-11-04T01:23:45;99693.23;;;10.13;80.00
31911;BME280;18457;52.432;16.914;2022-11-04T01:26:20;99694.13;;;10.23;79.69
31911;BME280;18457;52.432;16.914;2022-11-04T01:28:53;99690.52;;;10.23;79.61
31911;BME280;18457;52.432;16.914;2022-11-04T01:31:28;99687.09;;;10.12;80.33
31911;BME280;18457;52.432;16.914;2022-11-04T01:34:00;99678.53;;;10.20;80.05
31911;BME280;18457;52.432;16.914;2022-11-04T01:36:32;99679.77;;;10.20;80.01
31911;BME280;18457;52.432;16.914;2022-11-04T01:39:03;99685.96;;;10.24;79.83
31911;BME280;18457;52.432;16.914;2022-11-04T01:41:36;99687.01;;;10.15;80.25
31911;BME280;18457;52.432;16.914;2022-11-04T01:47:15;99680.56;;;10.07;80.87
31911;BME280;18457;52.432;16.914;2022-11-04T01:49:51;99677.82;;;10.14;80.56
31911;BME280;18457;52.432;16.914;2022-11-04T01:52:29;99672.20;;;10.15;80.22
31911;BME280;18457;52.432;16.914;2022-11-04T01:55:08;99671.98;;;10.10;80.69
31911;BME280;18457;52.432;16.914;2022-11-04T01:57:42;99664.30;;;10.08;80.72
31911;BME280;18457;52.432;16.914;2022-11-04T02:00:17;99666.58;;;10.10;80.75
31911;BME280;18457;52.432;16.914;2022-11-04T02:02:55;99653.37;;;10.17;80.51
31911;BME280;18457;52.432;16.914;2022-11-04T02:05:30;99650.14;;;10.11;80.77
31911;BME280;18457;52.432;16.914;2022-11-04T02:08:04;99655.52;;;10.12;80.85
31911;BME280;18457;52.432;16.914;2022-11-04T02:10:40;99653.83;;;10.13;81.08
31911;BME280;18457;52.432;16.914;2022-11-04T02:13:12;99646.55;;;10.10;81.15
31911;BME280;18457;52.432;16.914;2022-11-04T02:15:47;99640.59;;;10.16;80.84
31911;BME280;18457;52.432;16.914;2022-11-04T02:18:33;99635.59;;;10.19;80.88
31911;BME280;18457;52.432;16.914;2022-11-04T02:27:31;99616.53;;;10.12;81.33
31911;BME280;18457;52.432;16.914;2022-11-04T02:30:08;99619.77;;;10.17;81.10
31911;BME280;18457;52.432;16.914;2022-11-04T02:32:53;99621.86;;;10.15;81.21
31911;BME280;18457;52.432;16.914;2022-11-04T02:35:43;99625.41;;;10.16;81.30
31911;BME280;18457;52.432;16.914;2022-11-04T02:38:30;99625.63;;;10.15;81.33
31911;BME280;18457;52.432;16.914;2022-11-04T02:41:11;99618.65;;;10.13;81.42
31911;BME280;18457;52.432;16.914;2022-11-04T02:43:51;99618.22;;;9.99;82.47
31911;BME280;18457;52.432;16.914;2022-11-04T02:46:27;99618.73;;;10.06;82.14
31911;BME280;18457;52.432;16.914;2022-11-04T02:49:09;99619.46;;;10.05;82.25
31911;BME280;18457;52.432;16.914;2022-11-04T02:51:50;99615.27;;;10.06;82.03
31911;BME280;18457;52.432;16.914;2022-11-04T02:54:24;99614.25;;;10.04;82.11
31911;BME280;18457;52.432;16.914;2022-11-04T02:57:00;99615.70;;;9.99;82.51
31911;BME280;18457;52.432;16.914;2022-11-04T02:59:35;99608.77;;;10.01;82.39
31911;BME280;18457;52.432;16.914;2022-11-04T03:02:12;99603.97;;;9.99;82.63
31911;BME280;18457;52.432;16.914;2022-11-04T03:04:48;99602.27;;;10.01;82.61
31911;BME280;18457;52.432;16.914;2022-11-04T03:07:27;99598.30;;;10.01;82.75
31911;BME280;18457;52.432;16.914;2022-11-04T03:10:03;99594.84;;;10.02;82.66
31911;BME280;18457;52.432;16.914;2022-11-04T03:12:39;99595.26;;;10.01;82.80
31911;BME280;18457;52.432;16.914;2022-11-04T03:15:17;99588.28;;;9.94;83.13
31911;BME280;18457;52.432;16.914;2022-11-04T03:18:04;99588.96;;;9.90;83.28
31911;BME280;18457;52.432;16.914;2022-11-04T03:20:38;99582.44;;;9.91;83.33
31911;BME280;18457;52.432;16.914;2022-11-04T03:23:12;99581.30;;;9.87;83.47
31911;BME280;18457;52.432;16.914;2022-11-04T03:25:45;99580.96;;;9.97;83.06
31911;BME280;18457;52.432;16.914;2022-11-04T03:28:26;99585.44;;;9.92;83.24
31911;BME280;18457;52.432;16.914;2022-11-04T03:31:03;99579.24;;;9.89;83.58
31911;BME280;18457;52.432;16.914;2022-11-04T03:33:41;99578.78;;;9.87;83.65
31911;BME280;18457;52.432;16.914;2022-11-04T03:36:15;99572.44;;;9.88;83.54
31911;BME280;18457;52.432;16.914;2022-11-04T03:38:48;99574.52;;;9.85;83.81
31911;BME280;18457;52.432;16.914;2022-11-04T03:41:26;99575.50;;;9.88;83.54
31911;BME280;18457;52.432;16.914;2022-11-04T03:44:00;99575.81;;;9.89;83.89
31911;BME280;18457;52.432;16.914;2022-11-04T03:46:32;99577.60;;;9.89;83.64
31911;BME280;18457;52.432;16.914;2022-11-04T03:49:05;99574.51;;;9.85;84.07
31911;BME280;18457;52.432;16.914;2022-11-04T03:51:37;99574.68;;;9.86;83.84
31911;BME280;18457;52.432;16.914;2022-11-04T03:54:09;99582.25;;;9.86;83.94
31911;BME280;18457;52.432;16.914;2022-11-04T03:57:05;99575.92;;;9.86;83.86
31911;BME280;18457;52.432;16.914;2022-11-04T03:59:54;99571.95;;;9.91;83.57
31911;BME280;18457;52.432;16.914;2022-11-04T04:02:45;99572.95;;;9.83;84.17
31911;BME280;18457;52.432;16.914;2022-11-04T04:05:22;99578.25;;;9.76;84.41
31911;BME280;18457;52.432;16.914;2022-11-04T04:08:01;99577.78;;;9.69;84.91
31911;BME280;18457;52.432;16.914;2022-11-04T04:10:41;99574.86;;;9.69;84.93
31911;BME280;18457;52.432;16.914;2022-11-04T04:13:24;99567.20;;;9.72;84.82
31911;BME280;18457;52.432;16.914;2022-11-04T04:16:02;99563.11;;;9.71;84.94
31911;BME280;18457;52.432;16.914;2022-11-04T04:18:41;99561.78;;;9.67;85.03
31911;BME280;18457;52.432;16.914;2022-11-04T04:21:17;99561.81;;;9.77;84.51
31911;BME280;18457;52.432;16.914;2022-11-04T04:23:51;99557.86;;;9.76;84.54
31911;BME280;18457;52.432;16.914;2022-11-04T04:26:47;99555.53;;;9.76;84.61
31911;BME280;18457;52.432;16.914;2022-11-04T04:29:38;99555.45;;;9.73;84.73
31911;BME280;18457;52.432;16.914;2022-11-04T04:32:11;99552.86;;;9.75;84.60
31911;BME280;18457;52.432;16.914;2022-11-04T04:34:44;99555.09;;;9.73;84.67
31911;BME280;18457;52.432;16.914;2022-11-04T04:37:20;99554.08;;;9.76;84.30
31911;BME280;18457;52.432;16.914;2022-11-04T04:39:55;99556.41;;;9.77;84.43
31911;BME280;18457;52.432;16.914;2022-11-04T04:42:54;99555.54;;;9.75;84.46
31911;BME280;18457;52.432;16.914;2022-11-04T04:45:46;99557.80;;;9.68;85.05
31911;BME280;18457;52.432;16.914;2022-11-04T04:48:20;99556.48;;;9.69;85.04
31911;BME280;18457;52.432;16.914;2022-11-04T04:50:53;99549.80;;;9.69;85.06
31911;BME280;18457;52.432;16.914;2022-11-04T04:53:27;99545.80;;;9.65;84.97
31911;BME280;18457;52.432;16.914;2022-11-04T04:55:59;99546.88;;;9.54;85.63
31911;BME280;18457;52.432;16.914;2022-11-04T04:58:31;99550.19;;;9.52;85.91
31911;BME280;18457;52.432;16.914;2022-11-04T05:01:03;99545.20;;;9.50;86.07
31911;BME280;18457;52.432;16.914;2022-11-04T05:03:35;99544.34;;;9.55;85.73
31911;BME280;18457;52.432;16.914;2022-11-04T05:06:14;99544.77;;;9.58;85.59
31911;BME280;18457;52.432;16.914;2022-11-04T05:08:46;99537.74;;;9.58;85.37
31911;BME280;18457;52.432;16.914;2022-11-04T05:11:17;99543.68;;;9.53;85.91
31911;BME280;18457;52.432;16.914;2022-11-04T05:13:56;99546.34;;;9.55;85.89
31911;BME280;18457;52.432;16.914;2022-11-04T05:16:28;99547.17;;;9.57;85.70
31911;BME280;18457;52.432;16.914;2022-11-04T05:18:59;99544.73;;;9.54;85.66
31911;BME280;18457;52.432;16.914;2022-11-04T05:21:32;99546.30;;;9.45;86.28
31911;BME280;18457;52.432;16.914;2022-11-04T05:24:04;99539.41;;;9.51;86.01
31911;BME280;18457;52.432;16.914;2022-11-04T05:26:36;99536.59;;;9.44;86.40
31911;BME280;18457;52.432;16.914;2022-11-04T05:29:07;99534.95;;;9.45;86.49
31911;BME280;18457;52.432;16.914;2022-11-04T05:31:39;99538.69;;;9.41;86.55
31911;BME280;18457;52.432;16.914;2022-11-04T05:34:12;99541.04;;;9.35;87.14
31911;BME280;18457;52.432;16.914;2022-11-04T05:36:44;99534.33;;;9.48;86.41
31911;BME280;18457;52.432;16.914;2022-11-04T05:39:16;99536.50;;;9.41;86.58
31911;BME280;18457;52.432;16.914;2022-11-04T05:41:47;99534.91;;;9.46;86.39
31911;BME280;18457;52.432;16.914;2022-11-04T05:44:19;99532.33;;;9.48;86.43
31911;BME280;18457;52.432;16.914;2022-11-04T05:46:51;99534.94;;;9.40;86.55
31911;BME280;18457;52.432;16.914;2022-11-04T05:49:23;99532.75;;;9.35;86.92
31911;BME280;18457;52.432;16.914;2022-11-04T05:51:54;99530.41;;;9.30;87.40
31911;BME280;18457;52.432;16.914;2022-11-04T05:54:27;99535.29;;;9.35;87.13
31911;BME280;18457;52.432;16.914;2022-11-04T05:56:58;99526.25;;;9.36;87.03
31911;BME280;18457;52.432;16.914;2022-11-04T05:59:30;99518.24;;;9.37;87.04
31911;BME280;18457;52.432;16.914;2022-11-04T06:02:02;99516.31;;;9.41;86.68
31911;BME280;18457;52.432;16.914;2022-11-04T06:04:35;99525.86;;;9.42;86.97
31911;BME280;18457;52.432;16.914;2022-11-04T06:07:07;99523.25;;;9.44;86.46
31911;BME280;18457;52.432;16.914;2022-11-04T06:09:39;99520.73;;;9.49;86.21
31911;BME280;18457;52.432;16.914;2022-11-04T06:12:13;99521.65;;;9.48;86.36
31911;BME280;18457;52.432;16.914;2022-11-04T06:14:45;99516.42;;;9.43;86.53
31911;BME280;18457;52.432;16.914;2022-11-04T06:17:19;99516.08;;;9.43;86.60
31911;BME280;18457;52.432;16.914;2022-11-04T06:19:51;99518.72;;;9.50;86.34
31911;BME280;18457;52.432;16.914;2022-11-04T06:22:23;99520.95;;;9.43;86.52
31911;BME280;18457;52.432;16.914;2022-11-04T06:24:54;99524.50;;;9.45;86.60
31911;BME280;18457;52.432;16.914;2022-11-04T06:27:26;99524.12;;;9.56;85.94
31911;BME280;18457;52.432;16.914;2022-11-04T06:29:58;99526.99;;;9.45;86.36
31911;BME280;18457;52.432;16.914;2022-11-04T06:32:29;99534.33;;;9.47;86.49
31911;BME280;18457;52.432;16.914;2022-11-04T06:35:01;99536.80;;;9.54;86.07
31911;BME280;18457;52.432;16.914;2022-11-04T06:37:33;99539.02;;;9.57;86.08
31911;BME280;18457;52.432;16.914;2022-11-04T06:40:07;99545.25;;;9.60;86.16
31911;BME280;18457;52.432;16.914;2022-11-04T06:42:39;99551.05;;;9.64;85.76
31911;BME280;18457;52.432;16.914;2022-11-04T06:45:12;99548.48;;;9.71;85.48
31911;BME280;18457;52.432;16.914;2022-11-04T06:47:44;99544.02;;;9.69;85.60
31911;BME280;18457;52.432;16.914;2022-11-04T06:50:15;99542.91;;;9.65;85.98
31911;BME280;18457;52.432;16.914;2022-11-04T06:52:48;99542.22;;;9.75;85.39
31911;BME280;18457;52.432;16.914;2022-11-04T06:55:19;99543.54;;;9.73;85.47
31911;BME280;18457;52.432;16.914;2022-11-04T06:57:51;99539.35;;;9.74;85.35
31911;BME280;18457;52.432;16.914;2022-11-04T07:00:23;99542.38;;;9.76;85.22
31911;BME280;18457;52.432;16.914;2022-11-04T07:02:55;99547.73;;;9.82;84.75
31911;BME280;18457;52.432;16.914;2022-11-04T07:05:27;99547.60;;;9.86;84.62
31911;BME280;18457;52.432;16.914;2022-11-04T07:07:59;99548.30;;;9.87;84.37
31911;BME280;18457;52.432;16.914;2022-11-04T07:10:31;99553.84;;;9.93;83.86
31911;BME280;18457;52.432;16.914;2022-11-04T07:13:04;99556.19;;;9.93;84.03
31911;BME280;18457;52.432;16.914;2022-11-04T07:15:36;99558.21;;;9.97;83.77
31911;BME280;18457;52.432;16.914;2022-11-04T07:18:08;99558.52;;;10.03;83.57
31911;BME280;18457;52.432;16.914;2022-11-04T07:20:40;99557.02;;;10.00;83.94
31911;BME280;18457;52.432;16.914;2022-11-04T07:23:12;99559.08;;;10.03;83.69
31911;BME280;18457;52.432;16.914;2022-11-04T07:25:44;99563.33;;;10.16;82.93
31911;BME280;18457;52.432;16.914;2022-11-04T07:28:16;99566.84;;;10.19;82.87
31911;BME280;18457;52.432;16.914;2022-11-04T07:30:48;99567.85;;;10.21;82.76
31911;BME280;18457;52.432;16.914;2022-11-04T07:33:19;99568.80;;;10.24;82.57
31911;BME280;18457;52.432;16.914;2022-11-04T07:35:52;99564.98;;;10.25;82.74
31911;BME280;18457;52.432;16.914;2022-11-04T07:38:27;99569.23;;;10.32;82.67
31911;BME280;18457;52.432;16.914;2022-11-04T07:40:59;99572.95;;;10.34;82.86
31911;BME280;18457;52.432;16.914;2022-11-04T07:43:32;99572.38;;;10.35;82.52
31911;BME280;18457;52.432;16.914;2022-11-04T07:46:07;99573.55;;;10.33;82.91
31911;BME280;18457;52.432;16.914;2022-11-04T07:48:40;99577.80;;;10.40;82.57
31911;BME280;18457;52.432;16.914;2022-11-04T07:51:14;99578.86;;;10.50;82.09
31911;BME280;18457;52.432;16.914;2022-11-04T07:53:47;99577.91;;;10.52;82.15
31911;BME280;18457;52.432;16.914;2022-11-04T07:56:19;99575.16;;;10.58;81.52
31911;BME280;18457;52.432;16.914;2022-11-04T07:58:51;99574.35;;;10.55;81.71
31911;BME280;18457;52.432;16.914;2022-11-04T08:01:23;99569.09;;;10.70;81.33
31911;BME280;18457;52.432;16.914;2022-11-04T08:03:55;99566.55;;;10.80;81.22
31911;BME280;18457;52.432;16.914;2022-11-04T08:06:27;99564.11;;;10.86;80.93
31911;BME280;18457;52.432;16.914;2022-11-04T08:09:01;99562.02;;;10.94;80.71
31911;BME280;18457;52.432;16.914;2022-11-04T08:11:34;99565.08;;;11.08;80.53
31911;BME280;18457;52.432;16.914;2022-11-04T08:14:06;99564.20;;;11.20;80.30
31911;BME280;18457;52.432;16.914;2022-11-04T08:16:38;99560.43;;;11.33;81.72
31911;BME280;18457;52.432;16.914;2022-11-04T08:19:10;99559.71;;;11.24;80.56
31911;BME280;18457;52.432;16.914;2022-11-04T08:21:42;99559.44;;;11.26;80.79
31911;BME280;18457;52.432;16.914;2022-11-04T08:24:14;99560.08;;;11.28;80.50
31911;BME280;18457;52.432;16.914;2022-11-04T08:26:46;99556.15;;;11.27;80.32
31911;BME280;18457;52.432;16.914;2022-11-04T08:29:19;99563.20;;;11.32;80.16
31911;BME280;18457;52.432;16.914;2022-11-04T08:31:51;99561.95;;;11.44;79.78
31911;BME280;18457;52.432;16.914;2022-11-04T08:34:22;99563.66;;;11.47;79.92
31911;BME280;18457;52.432;16.914;2022-11-04T08:36:55;99569.70;;;11.50;79.81
31911;BME280;18457;52.432;16.914;2022-11-04T08:39:28;99570.74;;;11.55;80.08
31911;BME280;18457;52.432;16.914;2022-11-04T08:42:00;99573.98;;;11.59;79.46
31911;BME280;18457;52.432;16.914;2022-11-04T08:44:32;99580.89;;;11.59;79.36
31911;BME280;18457;52.432;16.914;2022-11-04T08:47:04;99570.29;;;11.71;78.99
31911;BME280;18457;52.432;16.914;2022-11-04T08:49:37;99565.70;;;11.73;78.93
31911;BME280;18457;52.432;16.914;2022-11-04T08:52:11;99563.10;;;11.78;78.54
31911;BME280;18457;52.432;16.914;2022-11-04T08:54:43;99563.84;;;11.86;78.44
31911;BME280;18457;52.432;16.914;2022-11-04T08:57:18;99566.04;;;11.94;78.59
31911;BME280;18457;52.432;16.914;2022-11-04T08:59:59;99565.88;;;11.89;78.61
31911;BME280;18457;52.432;16.914;2022-11-04T09:02:31;99566.28;;;11.96;78.43
31911;BME280;18457;52.432;16.914;2022-11-04T09:05:03;99561.16;;;11.85;78.52
31911;BME280;18457;52.432;16.914;2022-11-04T09:07:36;99563.97;;;11.91;78.52
31911;BME280;18457;52.432;16.914;2022-11-04T09:10:09;99562.58;;;11.98;78.28
31911;BME280;18457;52.432;16.914;2022-11-04T09:12:42;99554.10;;;11.94;78.03
31911;BME280;18457;52.432;16.914;2022-11-04T09:15:14;99551.91;;;11.98;78.06
31911;BME280;18457;52.432;16.914;2022-11-04T09:17:46;99551.27;;;12.09;77.81
31911;BME280;18457;52.432;16.914;2022-11-04T09:20:17;99546.61;;;12.11;77.59
31911;BME280;18457;52.432;16.914;2022-11-04T09:22:49;99547.48;;;12.08;77.93
31911;BME280;18457;52.432;16.914;2022-11-04T09:25:28;99545.63;;;12.09;77.72
31911;BME280;18457;52.432;16.914;2022-11-04T09:28:08;99546.48;;;12.15;77.78
31911;BME280;18457;52.432;16.914;2022-11-04T09:30:39;99544.86;;;12.06;77.75
31911;BME280;18457;52.432;16.914;2022-11-04T09:33:12;99543.82;;;12.01;77.93
31911;BME280;18457;52.432;16.914;2022-11-04T09:35:44;99541.52;;;12.08;77.70
31911;BME280;18457;52.432;16.914;2022-11-04T09:38:24;99532.77;;;12.17;77.56
31911;BME280;18457;52.432;16.914;2022-11-04T09:40:57;99525.83;;;12.19;77.35
31911;BME280;18457;52.432;16.914;2022-11-04T09:43:36;99531.52;;;12.17;77.36
31911;BME280;18457;52.432;16.914;2022-11-04T09:46:13;99528.90;;;12.19;76.94
31911;BME280;18457;52.432;16.914;2022-11-04T09:48:47;99532.83;;;12.24;76.80
31911;BME280;18457;52.432;16.914;2022-11-04T09:51:23;99532.91;;;12.26;76.79
31911;BME280;18457;52.432;16.914;2022-11-04T09:54:21;99527.13;;;12.26;76.83
31911;BME280;18457;52.432;16.914;2022-11-04T09:56:56;99521.82;;;12.23;76.76
31911;BME280;18457;52.432;16.914;2022-11-04T09:59:30;99517.11;;;12.19;76.93
31911;BME280;18457;52.432;16.914;2022-11-04T10:02:30;99511.91;;;12.30;76.60
31911;BME280;18457;52.432;16.914;2022-11-04T10:05:16;99506.56;;;12.32;76.64
31911;BME280;18457;52.432;16.914;2022-11-04T10:08:13;99502.64;;;12.35;76.82
31911;BME280;18457;52.432;16.914;2022-11-04T10:10:56;99500.70;;;12.46;76.62
31911;BME280;18457;52.432;16.914;2022-11-04T10:13:42;99491.48;;;12.33;76.74
31911;BME280;18457;52.432;16.914;2022-11-04T10:16:27;99490.98;;;12.36;76.48
31911;BME280;18457;52.432;16.914;2022-11-04T10:19:25;99487.90;;;12.44;76.48
31911;BME280;18457;52.432;16.914;2022-11-04T10:22:07;99489.72;;;12.48;76.51
31911;BME280;18457;52.432;16.914;2022-11-04T10:24:47;99490.38;;;12.49;76.22
31911;BME280;18457;52.432;16.914;2022-11-04T10:27:24;99491.16;;;12.33;76.69
31911;BME280;18457;52.432;16.914;2022-11-04T10:30:00;99495.91;;;12.32;76.85
31911;BME280;18457;52.432;16.914;2022-11-04T10:32:35;99498.23;;;12.44;76.08
31911;BME280;18457;52.432;16.914;2022-11-04T10:35:20;99496.24;;;12.52;75.82
31911;BME280;18457;52.432;16.914;2022-11-04T10:37:53;99495.14;;;12.60;75.47
31911;BME280;18457;52.432;16.914;2022-11-04T10:40:30;99496.02;;;12.45;75.81
31911;BME280;18457;52.432;16.914;2022-11-04T10:43:09;99500.80;;;12.35;75.87
31911;BME280;18457;52.432;16.914;2022-11-04T10:46:02;99502.84;;;12.35;76.51
31911;BME280;18457;52.432;16.914;2022-11-04T10:48:39;99503.84;;;12.37;76.05
31911;BME280;18457;52.432;16.914;2022-11-04T10:51:16;99498.98;;;12.36;75.82
31911;BME280;18457;52.432;16.914;2022-11-04T10:53:54;99498.33;;;12.38;75.85
31911;BME280;18457;52.432;16.914;2022-11-04T10:56:34;99493.29;;;12.41;76.01
31911;BME280;18457;52.432;16.914;2022-11-04T10:59:19;99484.31;;;12.51;75.58
31911;BME280;18457;52.432;16.914;2022-11-04T11:01:54;99476.98;;;12.64;75.48
31911;BME280;18457;52.432;16.914;2022-11-04T11:04:29;99476.14;;;12.71;75.75
31911;BME280;18457;52.432;16.914;2022-11-04T11:07:04;99480.20;;;12.61;75.59
31911;BME280;18457;52.432;16.914;2022-11-04T11:09:48;99484.07;;;12.52;75.57
31911;BME280;18457;52.432;16.914;2022-11-04T11:12:25;99477.86;;;12.50;75.34
31911;BME280;18457;52.432;16.914;2022-11-04T11:15:28;99476.22;;;12.54;75.51
31911;BME280;18457;52.432;16.914;2022-11-04T11:18:12;99478.80;;;12.49;75.88
31911;BME280;18457;52.432;16.914;2022-11-04T11:20:51;99473.94;;;12.37;76.54
31911;BME280;18457;52.432;16.914;2022-11-04T11:23:40;99471.66;;;12.47;76.09
31911;BME280;18457;52.432;16.914;2022-11-04T11:26:14;99473.19;;;12.49;75.89
31911;BME280;18457;52.432;16.914;2022-11-04T11:28:52;99471.23;;;12.48;76.07
31911;BME280;18457;52.432;16.914;2022-11-04T11:31:35;99459.86;;;12.55;75.83
31911;BME280;18457;52.432;16.914;2022-11-04T11:34:16;99459.89;;;12.58;75.62
31911;BME280;18457;52.432;16.914;2022-11-04T11:36:50;99462.48;;;12.57;75.67
31911;BME280;18457;52.432;16.914;2022-11-04T11:39:24;99469.40;;;12.49;75.60
31911;BME280;18457;52.432;16.914;2022-11-04T11:42:00;99472.20;;;12.43;75.97
31911;BME280;18457;52.432;16.914;2022-11-04T11:44:33;99475.71;;;12.49;75.78
31911;BME280;18457;52.432;16.914;2022-11-04T11:47:19;99470.24;;;12.50;76.20
31911;BME280;18457;52.432;16.914;2022-11-04T11:50:02;99470.37;;;12.43;76.62
31911;BME280;18457;52.432;16.914;2022-11-04T11:52:36;99471.48;;;12.35;76.44
31911;BME280;18457;52.432;16.914;2022-11-04T11:55:13;99471.58;;;12.41;76.58
31911;BME280;18457;52.432;16.914;2022-11-04T11:57:56;99466.98;;;12.38;76.86
31911;BME280;18457;52.432;16.914;2022-11-04T12:00:55;99457.58;;;12.34;77.10
31911;BME280;18457;52.432;16.914;2022-11-04T12:03:40;99450.02;;;12.37;76.96
31911;BME280;18457;52.432;16.914;2022-11-04T12:06:42;99438.65;;;12.44;76.69
31911;BME280;18457;52.432;16.914;2022-11-04T12:09:42;99429.26;;;12.43;76.97
31911;BME280;18457;52.432;16.914;2022-11-04T12:12:28;99416.06;;;12.46;76.76
31911;BME280;18457;52.432;16.914;2022-11-04T12:15:14;99409.23;;;12.49;77.36
31911;BME280;18457;52.432;16.914;2022-11-04T12:17:59;99403.23;;;12.46;77.53
31911;BME280;18457;52.432;16.914;2022-11-04T12:20:48;99413.55;;;12.46;77.23
31911;BME280;18457;52.432;16.914;2022-11-04T12:23:25;99419.62;;;12.48;77.38
31911;BME280;18457;52.432;16.914;2022-11-04T12:26:09;99428.70;;;12.47;77.24
31911;BME280;18457;52.432;16.914;2022-11-04T12:28:51;99429.23;;;12.48;77.41
31911;BME280;18457;52.432;16.914;2022-11-04T12:31:30;99432.08;;;12.41;78.23
31911;BME280;18457;52.432;16.914;2022-11-04T12:34:13;99437.81;;;12.42;78.29
31911;BME280;18457;52.432;16.914;2022-11-04T12:37:01;99437.33;;;12.41;78.23
31911;BME280;18457;52.432;16.914;2022-11-04T12:39:54;99441.88;;;12.37;78.51
31911;BME280;18457;52.432;16.914;2022-11-04T12:42:37;99445.70;;;12.40;78.58
31911;BME280;18457;52.432;16.914;2022-11-04T12:45:21;99445.52;;;12.40;78.54
31911;BME280;18457;52.432;16.914;2022-11-04T12:47:59;99441.48;;;12.33;79.19
31911;BME280;18457;52.432;16.914;2022-11-04T12:50:51;99442.31;;;12.27;79.90
31911;BME280;18457;52.432;16.914;2022-11-04T12:53:46;99438.56;;;12.27;80.18
31911;BME280;18457;52.432;16.914;2022-11-04T12:56:25;99439.77;;;12.24;80.49
31911;BME280;18457;52.432;16.914;2022-11-04T12:59:28;99437.39;;;12.24;80.56
31911;BME280;18457;52.432;16.914;2022-11-04T13:02:03;99439.38;;;12.16;81.45
31911;BME280;18457;52.432;16.914;2022-11-04T13:04:49;99443.84;;;12.22;81.72
31911;BME280;18457;52.432;16.914;2022-11-04T13:07:30;99444.70;;;12.34;81.22
31911;BME280;18457;52.432;16.914;2022-11-04T13:10:13;99449.56;;;12.35;81.35
31911;BME280;18457;52.432;16.914;2022-11-04T13:12:49;99453.85;;;12.40;81.14
31911;BME280;18457;52.432;16.914;2022-11-04T13:15:25;99455.44;;;12.45;80.90
31911;BME280;18457;52.432;16.914;2022-11-04T13:18:02;99458.48;;;12.50;81.01
31911;BME280;18457;52.432;16.914;2022-11-04T13:20:42;99464.29;;;12.50;81.60
31911;BME280;18457;52.432;16.914;2022-11-04T13:23:19;99463.25;;;12.48;81.75
31911;BME280;18457;52.432;16.914;2022-11-04T13:25:54;99466.50;;;12.49;81.85
31911;BME280;18457;52.432;16.914;2022-11-04T13:28:28;99468.17;;;12.48;82.58
31911;BME280;18457;52.432;16.914;2022-11-04T13:31:01;99469.79;;;12.48;83.29
31911;BME280;18457;52.432;16.914;2022-11-04T13:33:45;99458.41;;;12.43;83.74
31911;BME280;18457;52.432;16.914;2022-11-04T13:36:32;99455.58;;;12.38;84.98
31911;BME280;18457;52.432;16.914;2022-11-04T13:39:14;99449.77;;;12.27;86.08
31911;BME280;18457;52.432;16.914;2022-11-04T13:42:07;99442.98;;;12.13;87.26
31911;BME280;18457;52.432;16.914;2022-11-04T13:44:46;99445.38;;;12.08;88.13
31911;BME280;18457;52.432;16.914;2022-11-04T13:47:21;99450.09;;;12.04;88.84
31911;BME280;18457;52.432;16.914;2022-11-04T13:49:56;99452.55;;;12.06;89.36
31911;BME280;18457;52.432;16.914;2022-11-04T13:52:30;99452.77;;;12.09;89.36